Time;durP1;ratioP1;P1;durP2;ratioP2;P2;SDS_P1;SDS_P2;PMS_P1;PMS_P2;Temp;Humidity;BMP_temperature;BMP_pressure;BME280_temperature;BME280_humidity;BME280_pressure;Samples;Min_cycle;Max_cycle;Signal;HPM_P1;HPM_P2
2024/01/22 00:01:04;;;;;;;6.15;1.42;;;;;;;6.92;62.93;97655.34;4882193;29;20765;-83
2024/01/22 00:03:29;;;;;;;2.55;1.40;;;;;;;6.88;63.92;97663.75;4870700;29;20047;-83
2024/01/22 00:05:55;;;;;;;3.38;1.30;;;;;;;7.03;61.90;97656.47;4867448;29;20044;-81
2024/01/22 00:08:20;;;;;;;3.30;1.27;;;;;;;7.09;61.73;97649.66;4874897;29;20027;-82
2024/01/22 00:10:45;;;;;;;3.20;1.25;;;;;;;6.94;62.78;97635.22;4902288;29;20456;-82
2024/01/22 00:13:11;;;;;;;2.65;1.38;;;;;;;7.12;62.34;97655.22;4893695;29;20056;-82
2024/01/22 00:15:36;;;;;;;2.50;1.92;;;;;;;6.63;63.72;97624.84;4876125;29;20051;-81
2024/01/22 00:18:02;;;;;;;3.28;1.35;;;;;;;6.75;63.06;97630.94;4876851;29;20034;-83
2024/01/22 00:20:27;;;;;;;3.20;1.95;;;;;;;6.78;63.66;97619.41;4886378;29;20126;-87
2024/01/22 00:22:53;;;;;;;4.82;1.30;;;;;;;6.70;63.25;97623.00;4880558;29;20067;-87
2024/01/22 00:25:18;;;;;;;2.33;1.45;;;;;;;7.09;62.40;97634.94;4890788;29;20126;-84
2024/01/22 00:27:44;;;;;;;5.57;2.03;;;;;;;7.12;61.53;97621.53;4899933;29;20067;-90
2024/01/22 00:30:10;;;;;;;2.80;1.63;;;;;;;7.29;60.98;97623.63;4890110;29;20042;-87
2024/01/22 00:32:36;;;;;;;2.85;1.70;;;;;;;7.24;61.44;97621.66;4888699;29;20498;-88
2024/01/22 00:35:01;;;;;;;4.93;1.40;;;;;;;7.19;61.22;97598.19;4891063;29;20043;-86
2024/01/22 00:37:27;;;;;;;5.13;1.30;;;;;;;7.23;61.48;97604.56;4900836;29;20152;-86
2024/01/22 00:39:55;;;;;;;2.03;1.20;;;;;;;7.24;61.78;97600.94;4917745;29;20070;-87
2024/01/22 00:42:21;;;;;;;3.65;1.30;;;;;;;7.06;61.72;97613.81;4877885;29;20035;-87
2024/01/22 00:44:46;;;;;;;4.05;1.48;;;;;;;7.13;61.83;97605.03;4901458;29;20190;-89
2024/01/22 00:47:12;;;;;;;3.42;1.05;;;;;;;7.08;62.58;97593.72;4873587;29;20031;-88
2024/01/22 00:49:37;;;;;;;3.50;1.23;;;;;;;7.10;62.66;97574.38;4877016;29;20050;-85
2024/01/22 00:52:03;;;;;;;2.15;1.40;;;;;;;7.25;62.67;97581.03;4893940;29;20066;-89
2024/01/22 00:54:28;;;;;;;2.60;1.20;;;;;;;7.34;61.45;97574.56;4894634;29;20040;-85
2024/01/22 00:56:55;;;;;;;2.05;1.33;;;;;;;7.39;61.91;97579.91;4893615;29;20044;-85
2024/01/22 00:59:21;;;;;;;3.22;0.90;;;;;;;7.22;62.69;97566.69;4904682;29;20055;-87
2024/01/22 01:01:46;;;;;;;2.67;1.10;;;;;;;7.25;61.98;97574.06;4887044;29;20516;-86
2024/01/22 01:04:12;;;;;;;2.10;1.50;;;;;;;7.34;62.80;97589.31;4889679;29;20500;-87
2024/01/22 01:06:37;;;;;;;1.70;1.27;;;;;;;7.38;62.33;97585.28;4884903;29;20036;-85
2024/01/22 01:09:02;;;;;;;3.28;1.33;;;;;;;7.22;62.31;97578.88;4887396;29;20223;-86
2024/01/22 01:11:28;;;;;;;2.45;1.17;;;;;;;7.32;63.07;97585.13;4892265;29;20074;-81
2024/01/22 01:13:54;;;;;;;2.72;1.45;;;;;;;7.31;62.49;97601.66;4872519;29;20038;-84
2024/01/22 01:16:19;;;;;;;3.65;1.33;;;;;;;7.17;63.34;97597.63;4866240;29;20206;-83
2024/01/22 01:18:44;;;;;;;1.92;1.23;;;;;;;7.32;62.74;97595.50;4890168;29;21355;-83
2024/01/22 01:21:10;;;;;;;2.45;1.13;;;;;;;7.44;62.84;97594.81;4874790;29;20055;-80
2024/01/22 01:23:35;;;;;;;3.00;1.50;;;;;;;7.30;63.21;97584.56;4899263;29;20560;-82
2024/01/22 01:26:01;;;;;;;4.63;1.33;;;;;;;7.38;63.31;97580.91;4899177;29;20036;-82
2024/01/22 01:28:26;;;;;;;2.30;1.13;;;;;;;7.31;63.08;97559.44;4904654;29;20540;-84
2024/01/22 01:30:54;;;;;;;4.15;1.35;;;;;;;7.10;64.27;97568.41;4891335;29;20099;-87
2024/01/22 01:33:20;;;;;;;4.25;1.20;;;;;;;7.29;63.16;97564.06;4904942;29;20087;-87
2024/01/22 01:35:46;;;;;;;3.15;1.20;;;;;;;7.36;62.63;97564.00;4882540;29;20443;-85
2024/01/22 01:38:11;;;;;;;4.78;1.85;;;;;;;7.41;62.90;97556.38;4896532;29;20677;-88
2024/01/22 01:40:40;;;;;;;5.82;1.42;;;;;;;7.10;63.69;97545.88;4898396;29;20681;-89
2024/01/22 01:43:05;;;;;;;3.35;1.35;;;;;;;7.45;62.52;97541.97;4893573;29;20085;-86
2024/01/22 01:45:30;;;;;;;3.00;1.27;;;;;;;7.55;62.23;97539.69;4874355;29;20059;-87
2024/01/22 01:47:56;;;;;;;3.33;1.30;;;;;;;7.44;62.23;97546.38;4894546;29;20043;-86
2024/01/22 01:50:22;;;;;;;3.53;1.50;;;;;;;7.30;62.25;97535.34;4896239;29;20144;-87
2024/01/22 01:52:48;;;;;;;3.95;1.13;;;;;;;7.63;62.63;97538.63;4894229;29;20580;-87
2024/01/22 01:55:14;;;;;;;2.80;1.17;;;;;;;7.35;62.47;97518.38;4911272;29;20039;-84
2024/01/22 01:57:39;;;;;;;3.10;1.40;;;;;;;7.44;62.55;97511.91;4894507;29;20039;-87
2024/01/22 02:00:06;;;;;;;1.98;1.13;;;;;;;7.46;62.93;97510.69;4904347;29;20043;-87
2024/01/22 02:02:32;;;;;;;3.00;1.13;;;;;;;7.54;62.62;97517.38;4891206;29;20039;-84
2024/01/22 02:04:57;;;;;;;2.17;1.13;;;;;;;7.56;62.20;97512.00;4891559;29;20043;-84
2024/01/22 02:07:23;;;;;;;4.78;1.20;;;;;;;7.63;62.69;97521.25;4906739;29;20614;-88
2024/01/22 02:09:50;;;;;;;3.42;1.23;;;;;;;7.59;62.62;97509.75;4886502;29;20377;-85
2024/01/22 02:12:17;;;;;;;2.92;1.20;;;;;;;7.80;61.18;97499.94;4877963;29;20655;-84
2024/01/22 02:14:43;;;;;;;3.60;1.27;;;;;;;7.68;61.11;97503.25;4894787;29;20118;-86
2024/01/22 02:17:08;;;;;;;1.77;0.73;;;;;;;7.81;61.24;97502.31;4873381;29;20044;-84
2024/01/22 02:19:34;;;;;;;4.63;1.17;;;;;;;7.95;59.97;97502.94;4897564;29;20047;-86
2024/01/22 02:21:59;;;;;;;3.35;1.50;;;;;;;7.68;61.10;97492.91;4889775;29;20059;-82
2024/01/22 02:24:24;;;;;;;1.85;0.90;;;;;;;7.83;60.82;97486.53;4902492;29;20039;-82
2024/01/22 02:26:51;;;;;;;3.25;1.40;;;;;;;7.96;59.72;97483.78;4898665;29;20082;-82
2024/01/22 02:29:17;;;;;;;2.20;1.02;;;;;;;7.76;60.81;97463.31;4896244;29;20048;-79
2024/01/22 02:31:42;;;;;;;2.13;0.85;;;;;;;7.73;61.01;97447.38;4897788;29;20044;-80
2024/01/22 02:34:08;;;;;;;2.13;1.33;;;;;;;7.81;60.45;97454.84;4915079;29;20374;-80
2024/01/22 02:36:33;;;;;;;2.35;0.90;;;;;;;8.05;60.56;97466.91;4901965;29;20497;-81
2024/01/22 02:38:59;;;;;;;2.75;1.52;;;;;;;7.84;60.15;97449.25;4915347;29;20067;-84
2024/01/22 02:41:24;;;;;;;2.63;0.82;;;;;;;8.02;60.03;97445.78;4883610;29;20067;-85
2024/01/22 02:43:49;;;;;;;2.67;0.90;;;;;;;7.89;60.18;97454.56;4899365;29;20051;-84
2024/01/22 02:46:16;;;;;;;4.53;0.73;;;;;;;7.83;60.17;97448.47;4900719;29;20115;-85
2024/01/22 02:48:42;;;;;;;1.75;0.85;;;;;;;8.15;59.80;97468.19;4899436;29;20032;-85
2024/01/22 02:51:10;;;;;;;1.45;0.65;;;;;;;8.17;59.46;97453.97;4889648;29;20032;-87
2024/01/22 02:53:36;;;;;;;2.50;0.80;;;;;;;8.25;59.63;97438.09;4909559;29;20036;-85
2024/01/22 02:56:01;;;;;;;2.22;0.90;;;;;;;8.10;60.07;97449.88;4889878;29;20083;-85
2024/01/22 02:58:28;;;;;;;3.50;1.45;;;;;;;8.10;59.68;97435.13;4907220;29;20031;-88
2024/01/22 03:00:54;;;;;;;3.30;0.82;;;;;;;8.18;59.33;97413.28;4913007;29;20035;-85
2024/01/22 03:03:19;;;;;;;2.95;0.85;;;;;;;8.15;59.49;97408.53;4907548;29;20563;-85
2024/01/22 03:05:45;;;;;;;2.13;0.73;;;;;;;8.31;59.73;97409.66;4898960;29;20035;-90
2024/01/22 03:08:10;;;;;;;2.85;0.68;;;;;;;7.98;60.94;97413.56;4877918;29;20238;-85
2024/01/22 03:10:36;;;;;;;0.98;0.60;;;;;;;8.15;59.86;97401.53;4885071;29;20036;-89
2024/01/22 03:13:01;;;;;;;1.55;0.70;;;;;;;8.02;60.32;97394.75;4920684;29;20485;-84
2024/01/22 03:15:28;;;;;;;1.67;0.90;;;;;;;8.21;59.01;97402.47;4887594;29;20032;-88
2024/01/22 03:17:53;;;;;;;2.90;0.70;;;;;;;8.24;59.57;97417.56;4920124;29;20035;-83
2024/01/22 03:20:18;;;;;;;1.20;0.93;;;;;;;8.28;59.30;97425.66;4897698;29;20048;-85
2024/01/22 03:22:44;;;;;;;3.08;0.88;;;;;;;8.19;59.76;97418.25;4899115;29;20036;-85
2024/01/22 03:25:12;;;;;;;3.97;0.90;;;;;;;8.27;58.83;97419.69;4925907;29;20083;-85
2024/01/22 03:27:38;;;;;;;2.30;1.05;;;;;;;8.21;57.83;97421.41;4899301;29;20089;-86
2024/01/22 03:30:03;;;;;;;3.30;0.90;;;;;;;8.20;58.18;97419.03;4895619;29;20138;-82
2024/01/22 03:32:29;;;;;;;1.58;0.80;;;;;;;8.13;58.24;97403.56;4916556;29;20334;-80
2024/01/22 03:34:54;;;;;;;3.55;0.90;;;;;;;8.06;58.49;97421.81;4875483;29;20046;-81
2024/01/22 03:37:20;;;;;;;1.95;0.77;;;;;;;8.20;58.12;97401.66;4910407;29;20058;-80
2024/01/22 03:39:45;;;;;;;2.75;0.80;;;;;;;8.03;56.87;97385.94;4908696;29;20051;-81
2024/01/22 03:42:11;;;;;;;2.20;0.70;;;;;;;7.98;58.79;97393.59;4880017;29;20036;-80
2024/01/22 03:44:37;;;;;;;1.35;0.90;;;;;;;8.09;57.68;97394.66;4913098;29;20040;-79
2024/01/22 03:47:03;;;;;;;1.60;0.80;;;;;;;8.09;57.55;97386.06;4894329;29;20499;-81
2024/01/22 03:49:28;;;;;;;0.75;0.70;;;;;;;8.06;57.39;97375.13;4892264;29;20043;-81
2024/01/22 03:51:54;;;;;;;1.27;0.60;;;;;;;7.97;58.87;97360.09;4891942;29;20032;-80
2024/01/22 03:54:20;;;;;;;1.33;0.80;;;;;;;8.17;58.07;97365.78;4916602;29;20493;-79
2024/01/22 03:56:45;;;;;;;2.50;0.95;;;;;;;8.51;57.00;97366.06;4892048;29;20043;-80
2024/01/22 03:59:11;;;;;;;1.63;0.90;;;;;;;8.46;57.05;97365.94;4899395;29;20476;-79
2024/01/22 04:01:36;;;;;;;3.00;1.20;;;;;;;8.17;56.70;97360.59;4895712;29;20122;-80
2024/01/22 04:04:03;;;;;;;1.80;0.75;;;;;;;8.02;57.09;97350.66;4908437;29;20507;-79
2024/01/22 04:06:28;;;;;;;2.28;0.85;;;;;;;8.33;57.78;97350.56;4905411;29;20043;-78
2024/01/22 04:08:54;;;;;;;2.15;0.80;;;;;;;8.57;56.90;97354.00;4895647;29;20040;-81
2024/01/22 04:11:19;;;;;;;2.55;1.13;;;;;;;8.31;57.61;97331.84;4893843;29;20134;-81
2024/01/22 04:13:44;;;;;;;2.72;1.08;;;;;;;8.41;56.73;97330.28;4894778;29;20035;-79
2024/01/22 04:16:14;;;;;;;2.20;1.13;;;;;;;8.54;56.91;97329.28;4892146;29;20032;-78
2024/01/22 04:18:43;;;;;;;1.80;0.85;;;;;;;8.51;57.53;97341.91;4923395;29;20504;-80
2024/01/22 04:21:09;;;;;;;2.30;1.15;;;;;;;8.39;56.97;97316.72;4895685;29;20038;-79
2024/01/22 04:23:35;;;;;;;2.72;1.10;;;;;;;8.25;57.49;97286.84;4916805;29;20499;-81
2024/01/22 04:26:01;;;;;;;2.55;1.23;;;;;;;8.50;56.68;97317.78;4896492;29;20103;-80
2024/01/22 04:28:27;;;;;;;2.80;0.82;;;;;;;8.65;57.03;97319.91;4902934;29;20122;-80
2024/01/22 04:30:52;;;;;;;2.75;0.82;;;;;;;8.72;57.06;97325.78;4918159;29;20456;-78
2024/01/22 04:33:17;;;;;;;2.42;0.90;;;;;;;8.54;58.03;97311.13;4896802;29;20032;-80
2024/01/22 04:35:43;;;;;;;4.35;1.15;;;;;;;8.84;57.58;97327.53;4915507;29;20665;-79
2024/01/22 04:38:08;;;;;;;3.22;0.90;;;;;;;8.94;57.46;97319.97;4900232;29;20031;-79
2024/01/22 04:40:36;;;;;;;5.38;1.10;;;;;;;8.78;57.77;97324.84;4895720;29;20051;-79
2024/01/22 04:43:03;;;;;;;2.70;0.80;;;;;;;8.77;58.22;97323.28;4904366;29;20445;-80
2024/01/22 04:45:29;;;;;;;3.63;1.23;;;;;;;8.67;58.89;97320.47;4929202;29;20059;-79
2024/01/22 04:47:54;;;;;;;1.58;0.85;;;;;;;8.95;58.34;97316.34;4904258;29;20066;-79
2024/01/22 04:50:19;;;;;;;1.52;0.75;;;;;;;8.87;57.54;97306.31;4880925;29;20036;-81
2024/01/22 04:52:45;;;;;;;1.45;0.90;;;;;;;8.54;59.07;97310.34;4897378;29;20044;-82
2024/01/22 04:55:11;;;;;;;2.03;0.80;;;;;;;8.47;60.04;97312.25;4886942;29;20342;-79
2024/01/22 04:57:36;;;;;;;2.50;1.05;;;;;;;8.47;60.40;97294.09;4888641;29;20381;-80
2024/01/22 05:00:03;;;;;;;2.38;0.90;;;;;;;8.74;59.49;97297.78;4901957;29;20040;-79
2024/01/22 05:02:28;;;;;;;1.73;0.85;;;;;;;8.49;60.06;97294.66;4921708;29;20546;-85
2024/01/22 05:04:56;;;;;;;2.15;0.70;;;;;;;8.81;59.41;97280.25;4932058;29;20115;-84
2024/01/22 05:07:23;;;;;;;1.30;0.80;;;;;;;8.67;60.20;97291.94;4896687;29;20054;-85
2024/01/22 05:09:49;;;;;;;2.17;1.05;;;;;;;8.71;60.41;97267.06;4916878;29;20492;-85
2024/01/22 05:12:16;;;;;;;2.53;1.23;;;;;;;8.52;61.13;97263.06;4900674;29;20036;-84
2024/01/22 05:14:41;;;;;;;1.70;1.17;;;;;;;8.63;60.56;97250.03;4930288;29;20028;-88
2024/01/22 05:17:10;;;;;;;1.45;1.00;;;;;;;8.77;60.51;97249.78;4907317;29;20035;-86
2024/01/22 05:19:35;;;;;;;1.80;0.77;;;;;;;8.92;60.57;97241.50;4907357;29;20031;-86
2024/01/22 05:22:00;;;;;;;1.52;0.70;;;;;;;8.83;60.75;97242.91;4905665;29;20068;-84
2024/01/22 05:24:27;;;;;;;0.98;0.60;;;;;;;8.75;61.08;97223.28;4912669;29;20028;-80
2024/01/22 05:26:53;;;;;;;1.25;0.60;;;;;;;8.72;61.94;97231.50;4905963;29;20518;-84
2024/01/22 05:29:18;;;;;;;2.08;0.90;;;;;;;8.89;61.50;97236.75;4924787;29;20047;-83
2024/01/22 05:31:44;;;;;;;2.05;0.73;;;;;;;8.70;62.84;97234.34;4895358;29;20397;-82
2024/01/22 05:34:09;;;;;;;2.70;0.68;;;;;;;8.97;63.08;97254.59;4901892;29;20024;-85
2024/01/22 05:36:37;;;;;;;2.17;1.48;;;;;;;8.89;62.93;97228.97;4921113;29;20118;-84
2024/01/22 05:39:04;;;;;;;1.40;0.70;;;;;;;9.03;62.64;97225.09;4920542;29;20039;-85
2024/01/22 05:41:30;;;;;;;1.67;1.05;;;;;;;9.21;62.60;97195.53;4915601;29;20039;-85
2024/01/22 05:43:56;;;;;;;1.70;0.60;;;;;;;9.25;62.96;97214.81;4888293;29;20043;-82
2024/01/22 05:46:21;;;;;;;0.82;0.73;;;;;;;9.43;61.63;97213.81;4924227;29;20036;-84
2024/01/22 05:48:47;;;;;;;1.98;0.88;;;;;;;9.62;60.98;97198.00;4916548;29;20485;-84
2024/01/22 05:51:13;;;;;;;1.92;0.65;;;;;;;9.45;61.39;97209.16;4898883;29;20028;-84
2024/01/22 05:53:40;;;;;;;1.65;0.80;;;;;;;9.43;62.26;97180.03;4916056;29;20032;-83
2024/01/22 05:56:06;;;;;;;1.70;0.75;;;;;;;9.38;62.12;97183.31;4902490;29;20118;-85
2024/01/22 05:58:32;;;;;;;3.10;1.00;;;;;;;9.26;63.03;97182.63;4883401;29;20032;-85
2024/01/22 06:00:57;;;;;;;1.15;0.68;;;;;;;9.31;62.63;97153.34;4899279;29;20404;-82
2024/01/22 06:03:23;;;;;;;1.92;0.80;;;;;;;9.72;61.97;97151.34;4927480;29;20122;-84
2024/01/22 06:05:48;;;;;;;1.80;0.70;;;;;;;9.57;62.26;97160.47;4927801;29;20032;-83
2024/01/22 06:08:14;;;;;;;1.02;0.70;;;;;;;9.61;62.33;97157.41;4889344;29;20517;-84
2024/01/22 06:10:40;;;;;;;1.40;0.60;;;;;;;9.73;62.30;97163.28;4884961;29;20118;-84
2024/01/22 06:13:05;;;;;;;2.00;0.73;;;;;;;9.70;61.73;97153.41;4887845;29;20028;-80
2024/01/22 06:15:31;;;;;;;1.80;0.60;;;;;;;9.88;61.85;97160.91;4902243;29;20041;-79
2024/01/22 06:17:56;;;;;;;2.20;0.80;;;;;;;9.88;61.64;97170.53;4902939;29;20044;-80
2024/01/22 06:20:22;;;;;;;1.08;0.77;;;;;;;9.74;62.48;97149.28;4922777;29;20039;-79
2024/01/22 06:22:47;;;;;;;1.45;0.73;;;;;;;10.00;61.78;97134.00;4876757;29;20559;-78
2024/01/22 06:25:13;;;;;;;0.95;0.55;;;;;;;10.20;61.17;97147.28;4898371;29;20493;-78
2024/01/22 06:27:39;;;;;;;2.00;0.80;;;;;;;10.24;60.45;97145.75;4899704;29;20067;-77
2024/01/22 06:30:05;;;;;;;2.03;1.45;;;;;;;10.35;60.60;97138.91;4902013;29;20134;-80
2024/01/22 06:32:30;;;;;;;1.92;1.00;;;;;;;10.40;60.07;97135.53;4909186;29;20071;-78
2024/01/22 06:34:56;;;;;;;1.42;0.85;;;;;;;10.03;61.73;97149.16;4894168;29;20063;-78
2024/01/22 06:37:24;;;;;;;1.10;0.50;;;;;;;10.24;60.79;97142.38;4910166;29;20039;-79
2024/01/22 06:39:50;;;;;;;1.35;0.80;;;;;;;9.90;61.91;97130.28;4906090;29;20044;-79
2024/01/22 06:42:16;;;;;;;1.63;0.82;;;;;;;9.89;62.12;97123.47;4909404;29;20591;-79
2024/01/22 06:44:41;;;;;;;2.53;0.95;;;;;;;10.23;60.71;97131.19;4902236;29;20447;-78
2024/01/22 06:47:07;;;;;;;1.73;0.70;;;;;;;10.14;61.49;97130.00;4883664;29;20122;-78
2024/01/22 06:49:33;;;;;;;1.23;0.70;;;;;;;10.28;61.51;97141.66;4909703;29;20044;-79
2024/01/22 06:51:58;;;;;;;1.48;0.70;;;;;;;10.22;61.66;97136.63;4889454;29;20028;-78
2024/01/22 06:54:23;;;;;;;2.58;0.80;;;;;;;10.08;63.56;97138.81;4898253;29;20544;-77
2024/01/22 06:56:49;;;;;;;1.55;0.93;;;;;;;9.85;64.33;97140.59;4908744;29;20083;-80
2024/01/22 06:59:14;;;;;;;2.17;0.95;;;;;;;9.93;65.54;97127.16;4888891;29;20417;-79
2024/01/22 07:01:39;;;;;;;1.63;0.90;;;;;;;9.61;67.09;97129.59;4914282;29;20122;-79
2024/01/22 07:04:05;;;;;;;2.33;1.05;;;;;;;9.81;66.79;97110.13;4899632;29;20059;-79
2024/01/22 07:06:30;;;;;;;2.78;0.80;;;;;;;9.93;66.45;97124.56;4906537;29;20481;-80
2024/01/22 07:08:56;;;;;;;4.03;1.10;;;;;;;9.69;67.49;97128.41;4908682;29;20139;-78
2024/01/22 07:11:22;;;;;;;3.22;1.17;;;;;;;9.54;69.45;97123.78;4928687;29;20042;-80
2024/01/22 07:13:47;;;;;;;3.28;1.15;;;;;;;9.16;69.77;97123.47;4909329;29;20024;-79
2024/01/22 07:16:13;;;;;;;4.80;1.50;;;;;;;9.69;68.66;97121.41;4918733;29;20046;-79
2024/01/22 07:19:04;;;;;;;2.67;1.15;;;;;;;9.53;69.09;97124.81;4896246;29;20123;-80
2024/01/22 07:21:29;;;;;;;1.92;1.20;;;;;;;9.49;69.78;97116.72;4896515;29;20036;-81
2024/01/22 07:23:54;;;;;;;3.28;1.23;;;;;;;9.17;70.05;97108.72;4893144;29;20559;-84
2024/01/22 07:26:20;;;;;;;3.13;1.60;;;;;;;9.42;70.28;97116.06;4904554;29;20024;-86
2024/01/22 07:28:48;;;;;;;5.05;1.40;;;;;;;9.10;71.11;97114.06;4900078;29;20090;-86
2024/01/22 07:31:13;;;;;;;2.42;1.50;;;;;;;9.22;71.02;97102.78;4880623;29;20480;-83
2024/01/22 07:33:39;;;;;;;2.88;1.60;;;;;;;9.21;70.73;97115.00;4899181;29;20051;-83
2024/01/22 07:36:04;;;;;;;2.33;1.05;;;;;;;9.05;71.93;97098.38;4901460;29;20034;-82
2024/01/22 07:38:30;;;;;;;2.03;1.25;;;;;;;9.05;72.02;97076.81;4895257;29;20071;-80
2024/01/22 07:40:55;;;;;;;3.72;1.58;;;;;;;8.92;72.03;97094.28;4887545;29;20040;-81
2024/01/22 07:43:21;;;;;;;1.88;1.40;;;;;;;9.01;72.57;97094.66;4902043;29;20103;-81
2024/01/22 07:45:46;;;;;;;3.13;1.20;;;;;;;8.85;73.51;97100.66;4894940;29;20035;-83
2024/01/22 07:48:12;;;;;;;2.13;1.20;;;;;;;9.02;72.83;97111.84;4910290;29;20023;-84
2024/01/22 07:50:37;;;;;;;4.13;1.83;;;;;;;9.02;72.05;97121.44;4904066;29;20038;-83
2024/01/22 07:53:03;;;;;;;2.35;1.58;;;;;;;9.15;72.62;97124.53;4913230;29;20125;-84
2024/01/22 07:55:29;;;;;;;3.15;1.40;;;;;;;9.25;72.47;97121.28;4903051;29;20039;-83
2024/01/22 07:57:54;;;;;;;1.58;1.10;;;;;;;9.23;71.61;97131.13;4874954;29;20453;-82
2024/01/22 08:00:20;;;;;;;2.40;1.38;;;;;;;9.15;72.23;97123.72;4878788;29;20476;-81
2024/01/22 08:02:45;;;;;;;2.65;1.40;;;;;;;9.11;72.69;97105.22;4908340;29;20531;-80
2024/01/22 08:05:13;;;;;;;3.63;1.60;;;;;;;8.91;73.02;97121.28;4890977;29;20034;-82
2024/01/22 08:07:38;;;;;;;2.40;1.77;;;;;;;9.16;72.42;97120.88;4901286;29;20072;-83
2024/01/22 08:10:04;;;;;;;2.58;1.60;;;;;;;9.23;72.02;97122.56;4916364;29;20066;-82
2024/01/22 08:12:29;;;;;;;2.83;2.20;;;;;;;9.24;71.63;97124.13;4892664;29;20478;-81
2024/01/22 08:14:55;;;;;;;5.47;1.92;;;;;;;9.26;71.14;97132.47;4919336;29;20043;-81
2024/01/22 08:17:20;;;;;;;2.45;1.45;;;;;;;9.02;73.14;97145.59;4900639;29;20484;-80
2024/01/22 08:19:45;;;;;;;3.15;1.60;;;;;;;9.08;72.55;97143.88;4890061;29;20028;-83
2024/01/22 08:22:11;;;;;;;5.00;1.70;;;;;;;8.95;72.70;97131.97;4893880;29;20507;-82
2024/01/22 08:24:37;;;;;;;5.00;1.33;;;;;;;8.83;72.66;97124.25;4902792;29;20031;-81
2024/01/22 08:27:03;;;;;;;3.88;1.70;;;;;;;8.98;72.05;97118.53;4917455;29;20130;-81
2024/01/22 08:29:29;;;;;;;2.35;1.70;;;;;;;9.17;71.63;97122.47;4878148;29;20075;-80
2024/01/22 08:31:54;;;;;;;2.10;1.45;;;;;;;9.32;70.65;97136.72;4914197;29;20047;-81
2024/01/22 08:34:20;;;;;;;1.88;1.30;;;;;;;9.12;71.82;97145.78;4896741;29;21476;-78
2024/01/22 08:36:45;;;;;;;2.38;1.23;;;;;;;9.32;70.56;97136.72;4910028;29;20503;-78
2024/01/22 08:39:11;;;;;;;5.00;1.50;;;;;;;9.22;70.45;97144.34;4892855;29;20046;-78
2024/01/22 08:41:37;;;;;;;2.78;1.50;;;;;;;9.33;70.69;97157.25;4897951;29;20036;-78
2024/01/22 08:44:05;;;;;;;1.58;1.30;;;;;;;9.32;71.15;97141.91;4897739;29;20036;-79
2024/01/22 08:46:30;;;;;;;3.63;1.25;;;;;;;9.12;71.60;97157.97;4892712;29;20135;-77
2024/01/22 08:48:56;;;;;;;2.00;1.30;;;;;;;9.34;71.00;97137.28;4922534;29;20099;-79
2024/01/22 08:51:21;;;;;;;2.72;1.55;;;;;;;9.34;71.61;97145.06;4910352;29;20044;-78
2024/01/22 08:53:47;;;;;;;3.58;1.48;;;;;;;9.37;71.09;97135.00;4915137;29;20040;-79
2024/01/22 08:56:13;;;;;;;2.38;1.75;;;;;;;9.56;69.73;97143.31;4879451;29;20028;-78
2024/01/22 08:58:39;;;;;;;3.35;1.55;;;;;;;9.54;70.02;97142.78;4874834;29;20046;-78
2024/01/22 09:01:06;;;;;;;3.85;1.60;;;;;;;9.53;70.62;97136.00;4897052;29;20396;-78
2024/01/22 09:03:35;;;;;;;5.53;1.55;;;;;;;9.38;71.71;97133.94;4896617;29;20329;-79
2024/01/22 09:06:03;;;;;;;3.22;1.20;;;;;;;9.27;71.54;97129.63;4907722;29;20502;-78
2024/01/22 09:08:28;;;;;;;2.97;1.27;;;;;;;9.34;71.68;97124.28;4894420;29;20503;-78
2024/01/22 09:10:54;;;;;;;3.30;1.60;;;;;;;9.40;71.54;97114.75;4893185;29;20040;-78
2024/01/22 09:13:20;;;;;;;1.67;1.10;;;;;;;9.38;70.24;97123.56;4897353;29;20078;-77
2024/01/22 09:15:45;;;;;;;3.10;1.70;;;;;;;9.44;71.16;97115.84;4912395;29;20040;-77
2024/01/22 09:18:11;;;;;;;3.15;1.48;;;;;;;9.68;70.62;97112.03;4911241;29;20039;-78
2024/01/22 09:20:36;;;;;;;2.78;1.55;;;;;;;9.43;72.16;97115.06;4897853;29;20044;-78
2024/01/22 09:23:01;;;;;;;2.53;1.20;;;;;;;9.61;70.69;97093.19;4892686;29;20265;-79
2024/01/22 09:25:27;;;;;;;2.20;1.30;;;;;;;9.58;71.14;97117.09;4904168;29;20035;-79
2024/01/22 09:27:52;;;;;;;1.92;1.40;;;;;;;9.38;72.43;97089.00;4897731;29;20057;-79
2024/01/22 09:30:18;;;;;;;3.03;1.23;;;;;;;9.61;71.57;97108.03;4869004;29;20484;-78
2024/01/22 09:32:44;;;;;;;2.08;1.27;;;;;;;9.54;70.85;97102.97;4901243;29;20071;-77
2024/01/22 09:35:10;;;;;;;1.80;1.20;;;;;;;9.52;71.33;97111.03;4895567;29;20130;-78
2024/01/22 09:37:35;;;;;;;1.40;1.05;;;;;;;9.57;70.62;97095.50;4906396;29;20118;-79
2024/01/22 09:40:01;;;;;;;2.08;0.90;;;;;;;9.86;70.14;97103.16;4871431;29;20043;-77
2024/01/22 09:42:27;;;;;;;1.63;1.05;;;;;;;9.75;70.91;97099.66;4889312;29;20514;-79
2024/01/22 09:44:53;;;;;;;1.90;1.20;;;;;;;9.77;70.58;97076.00;4917056;29;20422;-83
2024/01/22 09:47:20;;;;;;;2.70;1.30;;;;;;;9.98;70.03;97086.66;4915795;29;20102;-84
2024/01/22 09:49:49;;;;;;;1.13;1.00;;;;;;;10.02;70.40;97111.16;4901009;29;20039;-82
2024/01/22 09:52:16;;;;;;;2.13;1.30;;;;;;;9.90;70.29;97096.47;4892075;29;20046;-82
2024/01/22 09:54:42;;;;;;;2.05;1.15;;;;;;;10.09;69.08;97089.13;4921636;29;20485;-82
2024/01/22 09:57:12;;;;;;;1.58;0.95;;;;;;;10.10;70.03;97075.09;4902017;29;20043;-84
2024/01/22 09:59:38;;;;;;;2.50;0.95;;;;;;;10.11;70.26;97096.69;4901055;29;20122;-83
2024/01/22 10:02:04;;;;;;;3.17;1.27;;;;;;;10.23;69.33;97093.94;4900195;29;20183;-83
2024/01/22 10:04:30;;;;;;;2.17;1.20;;;;;;;9.91;71.79;97095.41;4907369;29;20047;-81
2024/01/22 10:06:56;;;;;;;2.63;1.30;;;;;;;9.99;70.41;97088.22;4900266;29;20028;-83
2024/01/22 10:09:22;;;;;;;1.88;0.95;;;;;;;9.83;69.88;97085.44;4908647;29;20063;-85
2024/01/22 10:11:47;;;;;;;1.85;1.17;;;;;;;9.96;70.51;97067.91;4892958;29;20126;-84
2024/01/22 10:14:13;;;;;;;1.20;0.93;;;;;;;10.01;70.16;97120.00;4900406;29;20551;-80
2024/01/22 10:16:38;;;;;;;3.08;1.35;;;;;;;10.07;70.51;97080.00;4905266;29;20028;-82
2024/01/22 10:19:06;;;;;;;1.77;1.17;;;;;;;10.08;71.13;97074.53;4885067;29;20066;-82
2024/01/22 10:21:32;;;;;;;2.10;1.02;;;;;;;10.06;70.79;97086.25;4890480;29;20032;-83
2024/01/22 10:23:59;;;;;;;1.25;1.02;;;;;;;10.12;69.50;97067.03;4884579;29;20042;-83
2024/01/22 10:26:24;;;;;;;3.63;1.50;;;;;;;10.22;69.97;97066.38;4920015;29;20036;-81
2024/01/22 10:28:51;;;;;;;2.63;1.70;;;;;;;10.26;69.38;97042.22;4906682;29;20035;-85
2024/01/22 10:31:16;;;;;;;3.05;1.25;;;;;;;9.97;69.66;97027.84;4904330;29;20527;-82
2024/01/22 10:33:46;;;;;;;1.83;1.13;;;;;;;10.23;69.98;97054.91;4923463;29;20087;-83
2024/01/22 10:36:16;;;;;;;1.73;1.10;;;;;;;10.01;70.38;97053.13;4912941;29;20484;-81
2024/01/22 10:38:47;;;;;;;1.55;0.90;;;;;;;10.32;69.73;97060.53;4903166;29;20059;-86
2024/01/22 10:41:20;;;;;;;3.00;0.95;;;;;;;9.98;70.88;97045.81;4880893;29;20032;-83
2024/01/22 10:43:46;;;;;;;2.10;1.30;;;;;;;10.06;69.80;97045.41;4876770;29;20391;-83
2024/01/22 10:46:12;;;;;;;2.17;1.45;;;;;;;10.06;69.71;97042.78;4893662;29;20040;-81
2024/01/22 10:48:38;;;;;;;1.85;1.20;;;;;;;10.30;68.80;97037.31;4889674;29;20126;-82
2024/01/22 10:51:05;;;;;;;1.58;1.00;;;;;;;10.08;70.59;97029.53;4894050;29;20171;-85
2024/01/22 10:53:32;;;;;;;3.53;1.33;;;;;;;9.65;72.18;97038.94;4919561;29;20028;-82
2024/01/22 10:56:00;;;;;;;2.35;1.30;;;;;;;10.14;70.79;97031.16;4907338;29;20036;-78
2024/01/22 10:58:30;;;;;;;2.28;1.50;;;;;;;10.00;70.27;97041.16;4906137;29;20031;-77
2024/01/22 11:01:01;;;;;;;2.15;1.50;;;;;;;10.36;69.68;97035.56;4892547;29;20044;-77
2024/01/22 11:03:30;;;;;;;2.47;1.77;;;;;;;10.33;69.52;97033.47;4865104;29;20040;-78
2024/01/22 11:06:00;;;;;;;2.47;1.17;;;;;;;10.43;69.26;97030.94;4886809;29;20027;-78
2024/01/22 11:08:31;;;;;;;1.88;1.00;;;;;;;10.13;69.71;97012.16;4896591;29;20568;-77
2024/01/22 11:10:57;;;;;;;2.47;0.82;;;;;;;10.40;68.81;97016.63;4906254;29;20040;-78
2024/01/22 11:13:23;;;;;;;1.88;1.30;;;;;;;10.55;68.08;97012.56;4914686;29;20123;-79
2024/01/22 11:15:48;;;;;;;2.63;0.98;;;;;;;10.46;69.49;97027.84;4902414;29;20506;-78
2024/01/22 11:18:14;;;;;;;3.80;1.33;;;;;;;10.40;69.23;97023.63;4904454;29;20226;-78
2024/01/22 11:20:39;;;;;;;1.95;0.90;;;;;;;10.44;69.27;97016.91;4893847;29;20180;-77
2024/01/22 11:23:08;;;;;;;1.70;1.17;;;;;;;10.64;70.22;97035.31;4889641;29;20123;-78
2024/01/22 11:25:34;;;;;;;1.38;1.08;;;;;;;10.51;69.21;97016.72;4891245;29;20505;-77
2024/01/22 11:28:12;;;;;;;2.08;1.15;;;;;;;10.66;69.39;97035.84;4911521;29;20163;-79
2024/01/22 11:30:42;;;;;;;4.15;1.20;;;;;;;10.57;69.36;97031.31;4920887;29;20101;-81
2024/01/22 11:33:22;;;;;;;4.18;1.42;;;;;;;10.43;70.53;97023.13;4915255;29;20121;-80
2024/01/22 11:35:51;;;;;;;1.88;1.10;;;;;;;10.48;70.63;97033.59;4895960;29;20074;-83